sensor_id;sensor_type;location;lat;lon;timestamp;temperature;humidity
4090;DHT22;2059;48.538;12.146;2022-07-17T00:04:40;18.40;68.60
4090;DHT22;2059;48.538;12.146;2022-07-17T00:09:42;18.30;69.50
4090;DHT22;2059;48.538;12.146;2022-07-17T00:14:45;18.20;70.40
4090;DHT22;2059;48.538;12.146;2022-07-17T00:19:47;18.20;70.40
4090;DHT22;2059;48.538;12.146;2022-07-17T00:24:48;18.10;71.10
4090;DHT22;2059;48.538;12.146;2022-07-17T00:29:51;18.00;71.00
4090;DHT22;2059;48.538;12.146;2022-07-17T00:34:53;18.00;71.00
4090;DHT22;2059;48.538;12.146;2022-07-17T00:39:55;17.90;71.20
4090;DHT22;2059;48.538;12.146;2022-07-17T00:44:58;17.90;71.70
4090;DHT22;2059;48.538;12.146;2022-07-17T00:50:00;17.90;72.10
4090;DHT22;2059;48.538;12.146;2022-07-17T00:55:02;17.80;73.00
4090;DHT22;2059;48.538;12.146;2022-07-17T01:00:06;17.90;73.40
4090;DHT22;2059;48.538;12.146;2022-07-17T01:05:10;17.70;73.70
4090;DHT22;2059;48.538;12.146;2022-07-17T01:10:12;17.60;74.10
4090;DHT22;2059;48.538;12.146;2022-07-17T01:15:16;17.50;74.60
4090;DHT22;2059;48.538;12.146;2022-07-17T01:20:18;17.60;74.90
4090;DHT22;2059;48.538;12.146;2022-07-17T01:25:22;17.70;75.20
4090;DHT22;2059;48.538;12.146;2022-07-17T01:30:24;17.40;76.00
4090;DHT22;2059;48.538;12.146;2022-07-17T01:35:26;17.40;76.20
4090;DHT22;2059;48.538;12.146;2022-07-17T01:40:29;17.50;75.40
4090;DHT22;2059;48.538;12.146;2022-07-17T01:45:31;17.40;75.90
4090;DHT22;2059;48.538;12.146;2022-07-17T01:50:32;17.40;75.30
4090;DHT22;2059;48.538;12.146;2022-07-17T01:55:36;17.30;75.30
4090;DHT22;2059;48.538;12.146;2022-07-17T02:00:38;17.20;75.60
4090;DHT22;2059;48.538;12.146;2022-07-17T02:05:39;17.10;76.40
4090;DHT22;2059;48.538;12.146;2022-07-17T02:10:43;16.70;77.50
4090;DHT22;2059;48.538;12.146;2022-07-17T02:15:45;16.80;77.90
4090;DHT22;2059;48.538;12.146;2022-07-17T02:20:46;16.80;78.10
4090;DHT22;2059;48.538;12.146;2022-07-17T02:25:51;16.60;79.30
4090;DHT22;2059;48.538;12.146;2022-07-17T02:30:53;16.70;78.40
4090;DHT22;2059;48.538;12.146;2022-07-17T02:35:54;16.60;78.20
4090;DHT22;2059;48.538;12.146;2022-07-17T02:40:58;16.50;79.30
4090;DHT22;2059;48.538;12.146;2022-07-17T02:46:00;16.50;79.10
4090;DHT22;2059;48.538;12.146;2022-07-17T02:51:01;16.60;78.90
4090;DHT22;2059;48.538;12.146;2022-07-17T02:56:05;16.40;79.20
4090;DHT22;2059;48.538;12.146;2022-07-17T03:01:07;16.40;79.20
4090;DHT22;2059;48.538;12.146;2022-07-17T03:06:09;16.40;79.20
4090;DHT22;2059;48.538;12.146;2022-07-17T03:11:12;16.30;79.90
4090;DHT22;2059;48.538;12.146;2022-07-17T03:16:14;16.40;80.20
4090;DHT22;2059;48.538;12.146;2022-07-17T03:21:16;16.30;81.20
4090;DHT22;2059;48.538;12.146;2022-07-17T03:26:19;16.30;81.00
4090;DHT22;2059;48.538;12.146;2022-07-17T03:31:20;16.40;80.20
4090;DHT22;2059;48.538;12.146;2022-07-17T03:36:22;16.30;80.60
4090;DHT22;2059;48.538;12.146;2022-07-17T03:46:27;16.00;82.50
4090;DHT22;2059;48.538;12.146;2022-07-17T03:51:29;15.90;83.60
4090;DHT22;2059;48.538;12.146;2022-07-17T03:56:30;16.00;83.60
4090;DHT22;2059;48.538;12.146;2022-07-17T04:01:34;15.90;83.80
4090;DHT22;2059;48.538;12.146;2022-07-17T04:06:35;16.00;83.60
4090;DHT22;2059;48.538;12.146;2022-07-17T04:11:37;16.10;83.10
4090;DHT22;2059;48.538;12.146;2022-07-17T04:16:40;16.00;84.30
4090;DHT22;2059;48.538;12.146;2022-07-17T04:21:42;15.90;85.30
4090;DHT22;2059;48.538;12.146;2022-07-17T04:26:44;15.90;86.30
4090;DHT22;2059;48.538;12.146;2022-07-17T04:31:47;16.10;85.10
4090;DHT22;2059;48.538;12.146;2022-07-17T04:36:48;16.30;85.70
4090;DHT22;2059;48.538;12.146;2022-07-17T04:41:50;16.30;86.80
4090;DHT22;2059;48.538;12.146;2022-07-17T04:46:53;16.50;87.60
4090;DHT22;2059;48.538;12.146;2022-07-17T04:51:56;16.60;87.90
4090;DHT22;2059;48.538;12.146;2022-07-17T04:56:58;16.70;87.90
4090;DHT22;2059;48.538;12.146;2022-07-17T05:02:01;16.90;87.10
4090;DHT22;2059;48.538;12.146;2022-07-17T05:07:03;17.10;86.20
4090;DHT22;2059;48.538;12.146;2022-07-17T05:12:05;17.30;87.50
4090;DHT22;2059;48.538;12.146;2022-07-17T05:17:08;17.40;84.90
4090;DHT22;2059;48.538;12.146;2022-07-17T05:22:10;17.50;83.40
4090;DHT22;2059;48.538;12.146;2022-07-17T05:27:12;17.60;83.10
4090;DHT22;2059;48.538;12.146;2022-07-17T05:32:15;17.80;82.00
4090;DHT22;2059;48.538;12.146;2022-07-17T05:37:17;18.00;81.90
4090;DHT22;2059;48.538;12.146;2022-07-17T05:42:19;18.20;81.60
4090;DHT22;2059;48.538;12.146;2022-07-17T05:47:22;18.20;81.60
4090;DHT22;2059;48.538;12.146;2022-07-17T05:52:23;18.40;81.60
4090;DHT22;2059;48.538;12.146;2022-07-17T05:57:25;18.50;82.30
4090;DHT22;2059;48.538;12.146;2022-07-17T06:02:28;18.80;81.90
4090;DHT22;2059;48.538;12.146;2022-07-17T06:07:30;18.90;82.50
4090;DHT22;2059;48.538;12.146;2022-07-17T06:12:32;19.00;81.60
4090;DHT22;2059;48.538;12.146;2022-07-17T06:17:35;19.20;81.30
4090;DHT22;2059;48.538;12.146;2022-07-17T06:22:37;19.30;81.20
4090;DHT22;2059;48.538;12.146;2022-07-17T06:27:39;19.50;80.40
4090;DHT22;2059;48.538;12.146;2022-07-17T06:32:42;19.70;79.20
4090;DHT22;2059;48.538;12.146;2022-07-17T06:37:44;19.80;78.90
4090;DHT22;2059;48.538;12.146;2022-07-17T06:42:46;20.00;78.40
4090;DHT22;2059;48.538;12.146;2022-07-17T06:47:49;20.20;77.90
4090;DHT22;2059;48.538;12.146;2022-07-17T06:52:51;20.30;77.70
4090;DHT22;2059;48.538;12.146;2022-07-17T06:57:52;20.50;77.00
4090;DHT22;2059;48.538;12.146;2022-07-17T07:02:55;20.70;76.80
4090;DHT22;2059;48.538;12.146;2022-07-17T07:07:57;21.00;76.30
4090;DHT22;2059;48.538;12.146;2022-07-17T07:12:59;21.30;76.30
4090;DHT22;2059;48.538;12.146;2022-07-17T07:18:03;21.60;75.80
4090;DHT22;2059;48.538;12.146;2022-07-17T07:23:05;21.80;74.90
4090;DHT22;2059;48.538;12.146;2022-07-17T07:28:06;22.10;74.80
4090;DHT22;2059;48.538;12.146;2022-07-17T07:33:10;22.30;74.10
4090;DHT22;2059;48.538;12.146;2022-07-17T07:38:12;22.60;73.30
4090;DHT22;2059;48.538;12.146;2022-07-17T07:43:13;22.70;74.10
4090;DHT22;2059;48.538;12.146;2022-07-17T07:48:16;22.90;72.70
4090;DHT22;2059;48.538;12.146;2022-07-17T07:53:18;23.10;72.20
4090;DHT22;2059;48.538;12.146;2022-07-17T07:58:20;23.40;70.00
4090;DHT22;2059;48.538;12.146;2022-07-17T08:03:23;23.40;70.30
4090;DHT22;2059;48.538;12.146;2022-07-17T08:08:25;23.90;68.80
4090;DHT22;2059;48.538;12.146;2022-07-17T08:13:27;24.00;68.10
4090;DHT22;2059;48.538;12.146;2022-07-17T08:18:30;24.20;70.00
4090;DHT22;2059;48.538;12.146;2022-07-17T08:23:31;24.40;67.60
4090;DHT22;2059;48.538;12.146;2022-07-17T08:28:33;24.60;67.50
4090;DHT22;2059;48.538;12.146;2022-07-17T08:33:36;24.70;64.70
4090;DHT22;2059;48.538;12.146;2022-07-17T08:38:38;24.80;65.00
4090;DHT22;2059;48.538;12.146;2022-07-17T08:43:40;25.00;65.60
4090;DHT22;2059;48.538;12.146;2022-07-17T08:48:46;25.30;63.70
4090;DHT22;2059;48.538;12.146;2022-07-17T08:53:47;25.50;61.90
4090;DHT22;2059;48.538;12.146;2022-07-17T08:58:50;25.70;58.30
4090;DHT22;2059;48.538;12.146;2022-07-17T09:03:59;25.80;58.60
4090;DHT22;2059;48.538;12.146;2022-07-17T09:09:08;25.90;56.20
4090;DHT22;2059;48.538;12.146;2022-07-17T09:14:10;26.00;56.30
4090;DHT22;2059;48.538;12.146;2022-07-17T09:19:24;26.10;56.60
4090;DHT22;2059;48.538;12.146;2022-07-17T09:24:25;26.10;57.40
4090;DHT22;2059;48.538;12.146;2022-07-17T09:29:27;26.40;56.60
4090;DHT22;2059;48.538;12.146;2022-07-17T09:34:30;26.50;55.60
4090;DHT22;2059;48.538;12.146;2022-07-17T09:39:35;26.70;56.30
4090;DHT22;2059;48.538;12.146;2022-07-17T09:44:37;26.60;55.70
4090;DHT22;2059;48.538;12.146;2022-07-17T09:49:40;26.80;55.40
4090;DHT22;2059;48.538;12.146;2022-07-17T09:54:44;27.10;55.30
4090;DHT22;2059;48.538;12.146;2022-07-17T09:59:48;27.20;53.60
4090;DHT22;2059;48.538;12.146;2022-07-17T10:04:52;27.20;53.60
4090;DHT22;2059;48.538;12.146;2022-07-17T10:09:54;27.20;53.10
4090;DHT22;2059;48.538;12.146;2022-07-17T10:14:56;27.20;52.60
4090;DHT22;2059;48.538;12.146;2022-07-17T10:19:59;27.30;53.30
4090;DHT22;2059;48.538;12.146;2022-07-17T10:25:04;27.50;50.50
4090;DHT22;2059;48.538;12.146;2022-07-17T10:30:08;27.60;51.50
4090;DHT22;2059;48.538;12.146;2022-07-17T10:35:11;27.60;50.60
4090;DHT22;2059;48.538;12.146;2022-07-17T10:40:17;27.70;49.40
4090;DHT22;2059;48.538;12.146;2022-07-17T10:45:21;27.50;49.80
4090;DHT22;2059;48.538;12.146;2022-07-17T10:50:27;27.70;50.50
4090;DHT22;2059;48.538;12.146;2022-07-17T10:55:30;27.90;49.80
4090;DHT22;2059;48.538;12.146;2022-07-17T11:00:32;28.00;47.30
4090;DHT22;2059;48.538;12.146;2022-07-17T11:05:35;28.10;45.70
4090;DHT22;2059;48.538;12.146;2022-07-17T11:10:37;28.10;46.80
4090;DHT22;2059;48.538;12.146;2022-07-17T11:15:41;28.10;45.60
4090;DHT22;2059;48.538;12.146;2022-07-17T11:20:48;28.20;45.90
4090;DHT22;2059;48.538;12.146;2022-07-17T11:25:58;28.00;42.80
4090;DHT22;2059;48.538;12.146;2022-07-17T11:31:01;28.20;43.00
4090;DHT22;2059;48.538;12.146;2022-07-17T11:36:05;28.20;40.80
4090;DHT22;2059;48.538;12.146;2022-07-17T11:41:07;27.80;40.70
4090;DHT22;2059;48.538;12.146;2022-07-17T11:46:10;27.90;41.20
4090;DHT22;2059;48.538;12.146;2022-07-17T11:51:13;28.10;42.20
4090;DHT22;2059;48.538;12.146;2022-07-17T11:56:19;28.40;41.50
4090;DHT22;2059;48.538;12.146;2022-07-17T12:01:21;28.50;40.60
4090;DHT22;2059;48.538;12.146;2022-07-17T12:06:26;28.30;39.20
4090;DHT22;2059;48.538;12.146;2022-07-17T12:11:28;28.50;39.50
4090;DHT22;2059;48.538;12.146;2022-07-17T12:16:31;28.50;38.00
4090;DHT22;2059;48.538;12.146;2022-07-17T12:21:47;28.60;37.50
4090;DHT22;2059;48.538;12.146;2022-07-17T12:26:49;28.70;39.50
4090;DHT22;2059;48.538;12.146;2022-07-17T12:32:06;28.50;37.80
4090;DHT22;2059;48.538;12.146;2022-07-17T12:37:09;28.50;38.20
4090;DHT22;2059;48.538;12.146;2022-07-17T12:42:11;28.70;38.30
4090;DHT22;2059;48.538;12.146;2022-07-17T12:47:13;28.90;38.60
4090;DHT22;2059;48.538;12.146;2022-07-17T12:52:16;29.00;38.60
4090;DHT22;2059;48.538;12.146;2022-07-17T12:57:18;28.90;39.10
4090;DHT22;2059;48.538;12.146;2022-07-17T13:02:20;28.60;38.20
4090;DHT22;2059;48.538;12.146;2022-07-17T13:07:23;28.80;38.20
4090;DHT22;2059;48.538;12.146;2022-07-17T13:12:25;28.80;38.40
4090;DHT22;2059;48.538;12.146;2022-07-17T13:17:27;28.80;37.30
4090;DHT22;2059;48.538;12.146;2022-07-17T13:22:30;28.90;37.30
4090;DHT22;2059;48.538;12.146;2022-07-17T13:27:32;28.80;35.80
4090;DHT22;2059;48.538;12.146;2022-07-17T13:32:33;28.60;37.40
4090;DHT22;2059;48.538;12.146;2022-07-17T13:37:37;28.70;39.60
4090;DHT22;2059;48.538;12.146;2022-07-17T13:42:39;28.80;41.70
4090;DHT22;2059;48.538;12.146;2022-07-17T13:47:41;28.80;43.00
4090;DHT22;2059;48.538;12.146;2022-07-17T13:52:44;28.80;42.20
4090;DHT22;2059;48.538;12.146;2022-07-17T13:57:46;28.80;42.30
4090;DHT22;2059;48.538;12.146;2022-07-17T14:02:47;28.70;42.40
4090;DHT22;2059;48.538;12.146;2022-07-17T14:07:51;28.70;43.10
4090;DHT22;2059;48.538;12.146;2022-07-17T14:12:52;28.60;42.90
4090;DHT22;2059;48.538;12.146;2022-07-17T14:17:55;28.80;40.70
4090;DHT22;2059;48.538;12.146;2022-07-17T14:22:58;29.00;41.70
4090;DHT22;2059;48.538;12.146;2022-07-17T14:28:03;29.20;41.90
4090;DHT22;2059;48.538;12.146;2022-07-17T14:33:05;29.20;42.70
4090;DHT22;2059;48.538;12.146;2022-07-17T14:38:08;29.30;42.50
4090;DHT22;2059;48.538;12.146;2022-07-17T14:43:10;29.30;42.30
4090;DHT22;2059;48.538;12.146;2022-07-17T14:48:15;29.30;40.80
4090;DHT22;2059;48.538;12.146;2022-07-17T14:53:19;29.00;40.70
4090;DHT22;2059;48.538;12.146;2022-07-17T14:58:21;29.40;41.40
4090;DHT22;2059;48.538;12.146;2022-07-17T15:03:23;29.20;40.10
4090;DHT22;2059;48.538;12.146;2022-07-17T15:08:26;29.30;43.40
4090;DHT22;2059;48.538;12.146;2022-07-17T15:13:28;29.30;41.20
4090;DHT22;2059;48.538;12.146;2022-07-17T15:18:29;29.60;42.30
4090;DHT22;2059;48.538;12.146;2022-07-17T15:23:33;29.80;41.10
4090;DHT22;2059;48.538;12.146;2022-07-17T15:28:36;30.00;41.20
4090;DHT22;2059;48.538;12.146;2022-07-17T15:33:38;29.90;42.30
4090;DHT22;2059;48.538;12.146;2022-07-17T15:38:43;30.30;40.70
4090;DHT22;2059;48.538;12.146;2022-07-17T15:43:45;30.60;39.30
4090;DHT22;2059;48.538;12.146;2022-07-17T15:48:47;30.70;39.60
4090;DHT22;2059;48.538;12.146;2022-07-17T15:53:50;30.90;39.20
4090;DHT22;2059;48.538;12.146;2022-07-17T15:58:52;31.20;38.60
4090;DHT22;2059;48.538;12.146;2022-07-17T16:03:54;31.70;38.70
4090;DHT22;2059;48.538;12.146;2022-07-17T16:08:57;31.90;37.50
4090;DHT22;2059;48.538;12.146;2022-07-17T16:13:59;33.20;37.40
4090;DHT22;2059;48.538;12.146;2022-07-17T16:19:01;37.10;31.20
4090;DHT22;2059;48.538;12.146;2022-07-17T16:24:04;40.80;28.50
4090;DHT22;2059;48.538;12.146;2022-07-17T16:29:06;42.50;26.60
4090;DHT22;2059;48.538;12.146;2022-07-17T16:34:14;43.30;24.90
4090;DHT22;2059;48.538;12.146;2022-07-17T16:39:17;46.10;24.80
4090;DHT22;2059;48.538;12.146;2022-07-17T16:44:19;48.30;21.90
4090;DHT22;2059;48.538;12.146;2022-07-17T16:49:21;50.10;21.50
4090;DHT22;2059;48.538;12.146;2022-07-17T16:54:26;51.10;20.80
4090;DHT22;2059;48.538;12.146;2022-07-17T16:59:28;50.70;20.50
4090;DHT22;2059;48.538;12.146;2022-07-17T17:04:36;48.70;21.20
4090;DHT22;2059;48.538;12.146;2022-07-17T17:09:40;45.00;22.60
4090;DHT22;2059;48.538;12.146;2022-07-17T17:14:41;41.50;24.00
4090;DHT22;2059;48.538;12.146;2022-07-17T17:19:43;39.90;24.60
4090;DHT22;2059;48.538;12.146;2022-07-17T17:24:46;36.90;25.90
4090;DHT22;2059;48.538;12.146;2022-07-17T17:29:48;34.10;27.80
4090;DHT22;2059;48.538;12.146;2022-07-17T17:34:50;32.30;29.80
4090;DHT22;2059;48.538;12.146;2022-07-17T17:39:53;31.10;31.00
4090;DHT22;2059;48.538;12.146;2022-07-17T17:44:57;30.20;31.00
4090;DHT22;2059;48.538;12.146;2022-07-17T17:49:59;29.60;30.90
4090;DHT22;2059;48.538;12.146;2022-07-17T17:55:03;29.10;32.10
4090;DHT22;2059;48.538;12.146;2022-07-17T18:00:07;28.70;32.40
4090;DHT22;2059;48.538;12.146;2022-07-17T18:05:09;28.40;32.60
4090;DHT22;2059;48.538;12.146;2022-07-17T18:10:13;28.10;33.40
4090;DHT22;2059;48.538;12.146;2022-07-17T18:15:16;27.90;33.70
4090;DHT22;2059;48.538;12.146;2022-07-17T18:20:17;27.80;33.90
4090;DHT22;2059;48.538;12.146;2022-07-17T18:25:21;27.70;34.60
4090;DHT22;2059;48.538;12.146;2022-07-17T18:30:24;27.50;34.70
4090;DHT22;2059;48.538;12.146;2022-07-17T18:35:26;27.40;35.70
4090;DHT22;2059;48.538;12.146;2022-07-17T18:40:29;27.30;36.10
4090;DHT22;2059;48.538;12.146;2022-07-17T18:45:31;27.20;36.40
4090;DHT22;2059;48.538;12.146;2022-07-17T18:50:34;27.10;36.50
4090;DHT22;2059;48.538;12.146;2022-07-17T18:55:37;27.00;36.10
4090;DHT22;2059;48.538;12.146;2022-07-17T19:00:39;27.00;35.80
4090;DHT22;2059;48.538;12.146;2022-07-17T19:05:42;26.80;36.00
4090;DHT22;2059;48.538;12.146;2022-07-17T19:10:46;26.60;36.40
4090;DHT22;2059;48.538;12.146;2022-07-17T19:15:48;26.40;36.80
4090;DHT22;2059;48.538;12.146;2022-07-17T19:20:50;26.20;36.80
4090;DHT22;2059;48.538;12.146;2022-07-17T19:31:11;26.10;37.20
4090;DHT22;2059;48.538;12.146;2022-07-17T19:36:14;25.90;37.70
4090;DHT22;2059;48.538;12.146;2022-07-17T19:41:16;25.80;38.80
4090;DHT22;2059;48.538;12.146;2022-07-17T19:46:19;25.60;40.10
4090;DHT22;2059;48.538;12.146;2022-07-17T19:51:21;25.40;41.40
4090;DHT22;2059;48.538;12.146;2022-07-17T19:56:23;25.20;43.00
4090;DHT22;2059;48.538;12.146;2022-07-17T20:01:26;24.90;43.10
4090;DHT22;2059;48.538;12.146;2022-07-17T20:06:28;24.80;44.60
4090;DHT22;2059;48.538;12.146;2022-07-17T20:11:30;24.60;45.60
4090;DHT22;2059;48.538;12.146;2022-07-17T20:16:33;24.40;46.80
4090;DHT22;2059;48.538;12.146;2022-07-17T20:21:35;24.20;47.10
4090;DHT22;2059;48.538;12.146;2022-07-17T20:26:36;24.00;47.90
4090;DHT22;2059;48.538;12.146;2022-07-17T20:31:40;23.80;48.90
4090;DHT22;2059;48.538;12.146;2022-07-17T20:36:41;23.60;49.10
4090;DHT22;2059;48.538;12.146;2022-07-17T20:41:47;23.40;50.20
4090;DHT22;2059;48.538;12.146;2022-07-17T20:46:50;23.10;50.50
4090;DHT22;2059;48.538;12.146;2022-07-17T20:51:52;23.00;50.60
4090;DHT22;2059;48.538;12.146;2022-07-17T20:56:54;22.80;51.80
4090;DHT22;2059;48.538;12.146;2022-07-17T21:01:57;22.60;51.60
4090;DHT22;2059;48.538;12.146;2022-07-17T21:06:59;22.50;52.30
4090;DHT22;2059;48.538;12.146;2022-07-17T21:12:01;22.50;52.60
4090;DHT22;2059;48.538;12.146;2022-07-17T21:17:04;22.30;53.60
4090;DHT22;2059;48.538;12.146;2022-07-17T21:22:06;22.00;55.00
4090;DHT22;2059;48.538;12.146;2022-07-17T21:27:08;22.10;54.30
4090;DHT22;2059;48.538;12.146;2022-07-17T21:32:11;21.90;55.80
4090;DHT22;2059;48.538;12.146;2022-07-17T21:37:13;21.90;56.00
4090;DHT22;2059;48.538;12.146;2022-07-17T21:42:14;21.70;56.80
4090;DHT22;2059;48.538;12.146;2022-07-17T21:47:18;21.60;56.80
4090;DHT22;2059;48.538;12.146;2022-07-17T21:52:20;21.50;58.00
4090;DHT22;2059;48.538;12.146;2022-07-17T21:57:22;21.30;59.60
4090;DHT22;2059;48.538;12.146;2022-07-17T22:02:25;21.30;58.70
4090;DHT22;2059;48.538;12.146;2022-07-17T22:07:27;21.20;59.60
4090;DHT22;2059;48.538;12.146;2022-07-17T22:12:30;21.20;59.00
4090;DHT22;2059;48.538;12.146;2022-07-17T22:17:33;21.10;59.80
4090;DHT22;2059;48.538;12.146;2022-07-17T22:22:36;21.00;60.70
4090;DHT22;2059;48.538;12.146;2022-07-17T22:27:38;20.90;60.40
4090;DHT22;2059;48.538;12.146;2022-07-17T22:32:42;20.90;60.60
4090;DHT22;2059;48.538;12.146;2022-07-17T22:37:44;20.80;61.50
4090;DHT22;2059;48.538;12.146;2022-07-17T22:42:45;20.60;62.00
4090;DHT22;2059;48.538;12.146;2022-07-17T22:47:48;20.60;62.00
4090;DHT22;2059;48.538;12.146;2022-07-17T22:52:50;20.50;62.40
4090;DHT22;2059;48.538;12.146;2022-07-17T22:57:52;20.40;62.30
4090;DHT22;2059;48.538;12.146;2022-07-17T23:02:55;20.30;62.50
4090;DHT22;2059;48.538;12.146;2022-07-17T23:07:58;20.30;62.90
4090;DHT22;2059;48.538;12.146;2022-07-17T23:13:00;20.20;64.00
4090;DHT22;2059;48.538;12.146;2022-07-17T23:18:03;20.10;64.30
4090;DHT22;2059;48.538;12.146;2022-07-17T23:23:05;20.10;64.10
4090;DHT22;2059;48.538;12.146;2022-07-17T23:28:06;20.00;64.50
4090;DHT22;2059;48.538;12.146;2022-07-17T23:33:10;20.00;65.00
4090;DHT22;2059;48.538;12.146;2022-07-17T23:38:12;19.80;65.60
4090;DHT22;2059;48.538;12.146;2022-07-17T23:43:14;19.60;66.40
4090;DHT22;2059;48.538;12.146;2022-07-17T23:48:17;19.80;66.40
4090;DHT22;2059;48.538;12.146;2022-07-17T23:53:19;19.60;66.60
4090;DHT22;2059;48.538;12.146;2022-07-17T23:58:21;19.30;67.10
